sensor_id;sensor_type;location;lat;lon;timestamp;P1;durP1;ratioP1;P2;durP2;ratioP2
10260;SDS011;5175;42.606;23.388;2022-11-04T00:00:03;13.40;;;10.10;;
10260;SDS011;5175;42.606;23.388;2022-11-04T00:02:30;13.17;;;9.57;;
10260;SDS011;5175;42.606;23.388;2022-11-04T00:04:57;18.27;;;11.43;;
10260;SDS011;5175;42.606;23.388;2022-11-04T00:07:25;16.90;;;10.03;;
10260;SDS011;5175;42.606;23.388;2022-11-04T00:10:09;14.53;;;10.37;;
10260;SDS011;5175;42.606;23.388;2022-11-04T00:12:36;13.43;;;10.63;;
10260;SDS011;5175;42.606;23.388;2022-11-04T00:15:02;15.17;;;10.23;;
10260;SDS011;5175;42.606;23.388;2022-11-04T00:17:43;13.93;;;10.17;;
10260;SDS011;5175;42.606;23.388;2022-11-04T00:20:10;14.33;;;10.10;;
10260;SDS011;5175;42.606;23.388;2022-11-04T00:22:56;13.83;;;10.13;;
10260;SDS011;5175;42.606;23.388;2022-11-04T00:25:40;14.77;;;10.17;;
10260;SDS011;5175;42.606;23.388;2022-11-04T00:28:24;17.23;;;10.77;;
10260;SDS011;5175;42.606;23.388;2022-11-04T00:31:09;15.00;;;9.80;;
10260;SDS011;5175;42.606;23.388;2022-11-04T00:33:54;14.40;;;10.23;;
10260;SDS011;5175;42.606;23.388;2022-11-04T00:36:23;16.67;;;9.90;;
10260;SDS011;5175;42.606;23.388;2022-11-04T00:38:51;16.60;;;10.60;;
10260;SDS011;5175;42.606;23.388;2022-11-04T00:41:19;13.97;;;10.63;;
10260;SDS011;5175;42.606;23.388;2022-11-04T00:43:52;18.10;;;10.93;;
10260;SDS011;5175;42.606;23.388;2022-11-04T00:46:18;15.83;;;10.90;;
10260;SDS011;5175;42.606;23.388;2022-11-04T00:48:45;13.93;;;10.47;;
10260;SDS011;5175;42.606;23.388;2022-11-04T00:51:12;14.80;;;10.93;;
10260;SDS011;5175;42.606;23.388;2022-11-04T00:53:40;17.13;;;10.43;;
10260;SDS011;5175;42.606;23.388;2022-11-04T00:56:08;14.80;;;11.07;;
10260;SDS011;5175;42.606;23.388;2022-11-04T00:58:35;14.37;;;10.53;;
10260;SDS011;5175;42.606;23.388;2022-11-04T01:01:05;16.07;;;10.83;;
10260;SDS011;5175;42.606;23.388;2022-11-04T01:03:33;17.80;;;10.97;;
10260;SDS011;5175;42.606;23.388;2022-11-04T01:06:00;15.37;;;10.50;;
10260;SDS011;5175;42.606;23.388;2022-11-04T01:08:27;15.43;;;11.03;;
10260;SDS011;5175;42.606;23.388;2022-11-04T01:10:54;14.57;;;10.90;;
10260;SDS011;5175;42.606;23.388;2022-11-04T01:13:22;13.73;;;11.13;;
10260;SDS011;5175;42.606;23.388;2022-11-04T01:15:49;12.73;;;10.87;;
10260;SDS011;5175;42.606;23.388;2022-11-04T01:18:15;19.43;;;11.37;;
10260;SDS011;5175;42.606;23.388;2022-11-04T01:20:42;17.97;;;11.80;;
10260;SDS011;5175;42.606;23.388;2022-11-04T01:23:09;15.17;;;10.63;;
10260;SDS011;5175;42.606;23.388;2022-11-04T01:25:38;15.90;;;10.67;;
10260;SDS011;5175;42.606;23.388;2022-11-04T01:28:05;14.63;;;10.90;;
10260;SDS011;5175;42.606;23.388;2022-11-04T01:30:33;17.17;;;11.50;;
10260;SDS011;5175;42.606;23.388;2022-11-04T01:33:02;16.73;;;11.23;;
10260;SDS011;5175;42.606;23.388;2022-11-04T01:35:29;19.70;;;12.23;;
10260;SDS011;5175;42.606;23.388;2022-11-04T01:37:56;17.13;;;12.97;;
10260;SDS011;5175;42.606;23.388;2022-11-04T01:40:23;17.07;;;13.27;;
10260;SDS011;5175;42.606;23.388;2022-11-04T01:42:50;17.27;;;12.80;;
10260;SDS011;5175;42.606;23.388;2022-11-04T01:45:18;20.97;;;13.57;;
10260;SDS011;5175;42.606;23.388;2022-11-04T01:47:48;20.17;;;13.63;;
10260;SDS011;5175;42.606;23.388;2022-11-04T01:50:22;20.27;;;13.47;;
10260;SDS011;5175;42.606;23.388;2022-11-04T01:52:53;18.77;;;12.30;;
10260;SDS011;5175;42.606;23.388;2022-11-04T01:55:25;18.90;;;12.90;;
10260;SDS011;5175;42.606;23.388;2022-11-04T01:57:55;15.70;;;12.27;;
10260;SDS011;5175;42.606;23.388;2022-11-04T02:00:26;19.20;;;13.20;;
10260;SDS011;5175;42.606;23.388;2022-11-04T02:02:56;18.43;;;13.70;;
10260;SDS011;5175;42.606;23.388;2022-11-04T02:05:27;17.53;;;13.43;;
10260;SDS011;5175;42.606;23.388;2022-11-04T02:07:56;16.83;;;13.03;;
10260;SDS011;5175;42.606;23.388;2022-11-04T02:10:25;22.07;;;16.30;;
10260;SDS011;5175;42.606;23.388;2022-11-04T02:12:54;20.07;;;14.60;;
10260;SDS011;5175;42.606;23.388;2022-11-04T02:15:25;17.17;;;11.93;;
10260;SDS011;5175;42.606;23.388;2022-11-04T02:18:20;16.57;;;11.67;;
10260;SDS011;5175;42.606;23.388;2022-11-04T02:21:10;21.93;;;14.27;;
10260;SDS011;5175;42.606;23.388;2022-11-04T02:24:13;21.57;;;14.07;;
10260;SDS011;5175;42.606;23.388;2022-11-04T02:30:03;13.83;;;10.80;;
10260;SDS011;5175;42.606;23.388;2022-11-04T02:35:38;16.87;;;12.03;;
10260;SDS011;5175;42.606;23.388;2022-11-04T02:38:13;20.23;;;12.27;;
10260;SDS011;5175;42.606;23.388;2022-11-04T02:40:49;17.83;;;12.07;;
10260;SDS011;5175;42.606;23.388;2022-11-04T02:43:26;18.23;;;12.27;;
10260;SDS011;5175;42.606;23.388;2022-11-04T02:46:00;17.97;;;10.97;;
10260;SDS011;5175;42.606;23.388;2022-11-04T02:48:32;19.30;;;10.70;;
10260;SDS011;5175;42.606;23.388;2022-11-04T02:51:05;17.07;;;10.57;;
10260;SDS011;5175;42.606;23.388;2022-11-04T02:53:37;12.87;;;10.17;;
10260;SDS011;5175;42.606;23.388;2022-11-04T02:56:07;13.17;;;10.03;;
10260;SDS011;5175;42.606;23.388;2022-11-04T02:58:39;15.10;;;10.70;;
10260;SDS011;5175;42.606;23.388;2022-11-04T03:01:10;16.50;;;10.57;;
10260;SDS011;5175;42.606;23.388;2022-11-04T03:03:44;16.63;;;12.13;;
10260;SDS011;5175;42.606;23.388;2022-11-04T03:06:16;26.07;;;18.30;;
10260;SDS011;5175;42.606;23.388;2022-11-04T03:08:48;21.17;;;13.97;;
10260;SDS011;5175;42.606;23.388;2022-11-04T03:11:19;18.40;;;13.63;;
10260;SDS011;5175;42.606;23.388;2022-11-04T03:13:49;22.30;;;17.77;;
10260;SDS011;5175;42.606;23.388;2022-11-04T03:16:23;23.87;;;17.53;;
10260;SDS011;5175;42.606;23.388;2022-11-04T03:18:56;22.50;;;18.50;;
10260;SDS011;5175;42.606;23.388;2022-11-04T03:21:27;25.47;;;18.97;;
10260;SDS011;5175;42.606;23.388;2022-11-04T03:23:59;25.07;;;16.50;;
10260;SDS011;5175;42.606;23.388;2022-11-04T03:26:29;25.10;;;18.87;;
10260;SDS011;5175;42.606;23.388;2022-11-04T03:29:03;24.80;;;18.40;;
10260;SDS011;5175;42.606;23.388;2022-11-04T03:31:43;24.13;;;18.93;;
10260;SDS011;5175;42.606;23.388;2022-11-04T03:34:16;20.40;;;15.77;;
10260;SDS011;5175;42.606;23.388;2022-11-04T03:36:43;21.23;;;14.20;;
10260;SDS011;5175;42.606;23.388;2022-11-04T03:39:09;18.47;;;11.13;;
10260;SDS011;5175;42.606;23.388;2022-11-04T03:41:37;16.97;;;11.13;;
10260;SDS011;5175;42.606;23.388;2022-11-04T03:44:08;15.83;;;11.23;;
10260;SDS011;5175;42.606;23.388;2022-11-04T03:46:36;17.73;;;10.60;;
10260;SDS011;5175;42.606;23.388;2022-11-04T03:49:05;16.40;;;10.63;;
10260;SDS011;5175;42.606;23.388;2022-11-04T03:51:33;14.77;;;10.60;;
10260;SDS011;5175;42.606;23.388;2022-11-04T03:54:00;19.40;;;11.03;;
10260;SDS011;5175;42.606;23.388;2022-11-04T03:56:30;18.17;;;10.70;;
10260;SDS011;5175;42.606;23.388;2022-11-04T03:59:17;15.70;;;10.63;;
10260;SDS011;5175;42.606;23.388;2022-11-04T04:01:58;15.03;;;11.13;;
10260;SDS011;5175;42.606;23.388;2022-11-04T04:04:34;19.07;;;12.27;;
10260;SDS011;5175;42.606;23.388;2022-11-04T04:07:04;17.00;;;10.83;;
10260;SDS011;5175;42.606;23.388;2022-11-04T04:09:37;15.50;;;10.97;;
10260;SDS011;5175;42.606;23.388;2022-11-04T04:12:09;17.77;;;11.10;;
10260;SDS011;5175;42.606;23.388;2022-11-04T04:14:46;23.93;;;14.43;;
10260;SDS011;5175;42.606;23.388;2022-11-04T04:17:18;26.97;;;19.37;;
10260;SDS011;5175;42.606;23.388;2022-11-04T04:19:56;21.70;;;14.90;;
10260;SDS011;5175;42.606;23.388;2022-11-04T04:22:27;21.37;;;14.83;;
10260;SDS011;5175;42.606;23.388;2022-11-04T04:24:57;17.20;;;13.93;;
10260;SDS011;5175;42.606;23.388;2022-11-04T04:27:44;18.97;;;12.67;;
10260;SDS011;5175;42.606;23.388;2022-11-04T04:30:14;20.50;;;14.03;;
10260;SDS011;5175;42.606;23.388;2022-11-04T04:32:43;20.47;;;16.30;;
10260;SDS011;5175;42.606;23.388;2022-11-04T04:35:13;22.97;;;16.60;;
10260;SDS011;5175;42.606;23.388;2022-11-04T04:37:59;18.73;;;13.70;;
10260;SDS011;5175;42.606;23.388;2022-11-04T04:40:41;19.03;;;12.73;;
10260;SDS011;5175;42.606;23.388;2022-11-04T04:43:29;16.20;;;12.27;;
10260;SDS011;5175;42.606;23.388;2022-11-04T04:46:14;20.33;;;12.17;;
10260;SDS011;5175;42.606;23.388;2022-11-04T04:48:41;16.30;;;11.53;;
10260;SDS011;5175;42.606;23.388;2022-11-04T04:51:09;18.73;;;12.13;;
10260;SDS011;5175;42.606;23.388;2022-11-04T04:53:36;22.83;;;14.47;;
10260;SDS011;5175;42.606;23.388;2022-11-04T04:56:03;17.20;;;13.03;;
10260;SDS011;5175;42.606;23.388;2022-11-04T04:58:30;20.23;;;13.07;;
10260;SDS011;5175;42.606;23.388;2022-11-04T05:00:57;21.10;;;12.23;;
10260;SDS011;5175;42.606;23.388;2022-11-04T05:03:24;21.40;;;13.00;;
10260;SDS011;5175;42.606;23.388;2022-11-04T05:05:51;20.97;;;14.57;;
10260;SDS011;5175;42.606;23.388;2022-11-04T05:08:19;21.80;;;13.50;;
10260;SDS011;5175;42.606;23.388;2022-11-04T05:10:46;21.33;;;13.10;;
10260;SDS011;5175;42.606;23.388;2022-11-04T05:13:13;24.80;;;14.57;;
10260;SDS011;5175;42.606;23.388;2022-11-04T05:15:54;19.20;;;14.03;;
10260;SDS011;5175;42.606;23.388;2022-11-04T05:18:21;22.13;;;14.00;;
10260;SDS011;5175;42.606;23.388;2022-11-04T05:20:48;21.37;;;15.40;;
10260;SDS011;5175;42.606;23.388;2022-11-04T05:23:15;23.57;;;13.10;;
10260;SDS011;5175;42.606;23.388;2022-11-04T05:25:43;20.30;;;15.60;;
10260;SDS011;5175;42.606;23.388;2022-11-04T05:28:10;22.87;;;16.00;;
10260;SDS011;5175;42.606;23.388;2022-11-04T05:30:37;27.67;;;20.07;;
10260;SDS011;5175;42.606;23.388;2022-11-04T05:33:04;26.57;;;20.53;;
10260;SDS011;5175;42.606;23.388;2022-11-04T05:35:32;25.40;;;18.80;;
10260;SDS011;5175;42.606;23.388;2022-11-04T05:38:02;26.50;;;20.03;;
10260;SDS011;5175;42.606;23.388;2022-11-04T05:40:29;29.37;;;22.30;;
10260;SDS011;5175;42.606;23.388;2022-11-04T05:42:59;32.30;;;21.40;;
10260;SDS011;5175;42.606;23.388;2022-11-04T05:45:27;28.67;;;22.03;;
10260;SDS011;5175;42.606;23.388;2022-11-04T05:47:57;26.77;;;20.10;;
10260;SDS011;5175;42.606;23.388;2022-11-04T05:50:25;35.27;;;22.80;;
10260;SDS011;5175;42.606;23.388;2022-11-04T05:52:52;29.43;;;20.73;;
10260;SDS011;5175;42.606;23.388;2022-11-04T05:55:21;32.00;;;22.60;;
10260;SDS011;5175;42.606;23.388;2022-11-04T05:57:48;30.53;;;20.00;;
10260;SDS011;5175;42.606;23.388;2022-11-04T06:00:17;23.60;;;17.27;;
10260;SDS011;5175;42.606;23.388;2022-11-04T06:02:44;23.67;;;15.87;;
10260;SDS011;5175;42.606;23.388;2022-11-04T06:05:11;21.93;;;16.07;;
10260;SDS011;5175;42.606;23.388;2022-11-04T06:07:38;24.47;;;16.83;;
10260;SDS011;5175;42.606;23.388;2022-11-04T06:10:05;27.27;;;18.17;;
10260;SDS011;5175;42.606;23.388;2022-11-04T06:12:33;29.27;;;19.33;;
10260;SDS011;5175;42.606;23.388;2022-11-04T06:14:59;27.33;;;22.57;;
10260;SDS011;5175;42.606;23.388;2022-11-04T06:17:28;28.20;;;21.73;;
10260;SDS011;5175;42.606;23.388;2022-11-04T06:19:55;29.60;;;22.80;;
10260;SDS011;5175;42.606;23.388;2022-11-04T06:22:22;32.70;;;22.83;;
10260;SDS011;5175;42.606;23.388;2022-11-04T06:24:48;33.27;;;23.63;;
10260;SDS011;5175;42.606;23.388;2022-11-04T06:27:16;31.93;;;23.77;;
10260;SDS011;5175;42.606;23.388;2022-11-04T06:29:43;30.10;;;23.23;;
10260;SDS011;5175;42.606;23.388;2022-11-04T06:32:12;32.77;;;23.63;;
10260;SDS011;5175;42.606;23.388;2022-11-04T06:34:42;33.63;;;23.93;;
10260;SDS011;5175;42.606;23.388;2022-11-04T06:37:09;32.80;;;22.07;;
10260;SDS011;5175;42.606;23.388;2022-11-04T06:39:36;32.60;;;23.90;;
10260;SDS011;5175;42.606;23.388;2022-11-04T06:42:03;31.73;;;23.67;;
10260;SDS011;5175;42.606;23.388;2022-11-04T06:44:30;31.93;;;23.53;;
10260;SDS011;5175;42.606;23.388;2022-11-04T06:46:58;32.17;;;23.53;;
10260;SDS011;5175;42.606;23.388;2022-11-04T06:49:25;36.70;;;23.53;;
10260;SDS011;5175;42.606;23.388;2022-11-04T06:51:54;32.63;;;23.47;;
10260;SDS011;5175;42.606;23.388;2022-11-04T06:54:21;34.77;;;23.53;;
10260;SDS011;5175;42.606;23.388;2022-11-04T06:56:48;31.80;;;23.53;;
10260;SDS011;5175;42.606;23.388;2022-11-04T06:59:15;29.87;;;22.93;;
10260;SDS011;5175;42.606;23.388;2022-11-04T07:01:45;31.57;;;23.20;;
10260;SDS011;5175;42.606;23.388;2022-11-04T07:04:12;32.13;;;23.30;;
10260;SDS011;5175;42.606;23.388;2022-11-04T07:06:40;33.53;;;23.90;;
10260;SDS011;5175;42.606;23.388;2022-11-04T07:09:09;33.50;;;24.63;;
10260;SDS011;5175;42.606;23.388;2022-11-04T07:11:37;35.63;;;24.90;;
10260;SDS011;5175;42.606;23.388;2022-11-04T07:14:04;36.60;;;25.57;;
10260;SDS011;5175;42.606;23.388;2022-11-04T07:16:32;35.60;;;25.87;;
10260;SDS011;5175;42.606;23.388;2022-11-04T07:18:59;34.40;;;27.20;;
10260;SDS011;5175;42.606;23.388;2022-11-04T07:21:26;39.07;;;26.87;;
10260;SDS011;5175;42.606;23.388;2022-11-04T07:23:53;34.93;;;26.20;;
10260;SDS011;5175;42.606;23.388;2022-11-04T07:26:21;31.53;;;25.47;;
10260;SDS011;5175;42.606;23.388;2022-11-04T07:28:48;36.03;;;25.40;;
10260;SDS011;5175;42.606;23.388;2022-11-04T07:31:15;30.83;;;24.93;;
10260;SDS011;5175;42.606;23.388;2022-11-04T07:33:42;29.70;;;24.00;;
10260;SDS011;5175;42.606;23.388;2022-11-04T07:36:13;31.13;;;24.97;;
10260;SDS011;5175;42.606;23.388;2022-11-04T07:38:41;33.77;;;27.03;;
10260;SDS011;5175;42.606;23.388;2022-11-04T07:41:08;34.40;;;26.00;;
10260;SDS011;5175;42.606;23.388;2022-11-04T07:43:36;37.50;;;25.47;;
10260;SDS011;5175;42.606;23.388;2022-11-04T07:46:04;32.90;;;24.10;;
10260;SDS011;5175;42.606;23.388;2022-11-04T07:48:32;29.60;;;23.70;;
10260;SDS011;5175;42.606;23.388;2022-11-04T07:50:59;32.37;;;24.00;;
10260;SDS011;5175;42.606;23.388;2022-11-04T07:53:27;26.93;;;21.87;;
10260;SDS011;5175;42.606;23.388;2022-11-04T07:55:55;27.77;;;23.53;;
10260;SDS011;5175;42.606;23.388;2022-11-04T07:58:22;28.77;;;22.30;;
10260;SDS011;5175;42.606;23.388;2022-11-04T08:00:51;32.13;;;22.70;;
10260;SDS011;5175;42.606;23.388;2022-11-04T08:03:23;30.83;;;22.17;;
10260;SDS011;5175;42.606;23.388;2022-11-04T08:05:53;29.57;;;23.03;;
10260;SDS011;5175;42.606;23.388;2022-11-04T08:08:20;29.20;;;22.13;;
10260;SDS011;5175;42.606;23.388;2022-11-04T08:10:50;28.90;;;23.30;;
10260;SDS011;5175;42.606;23.388;2022-11-04T08:13:19;31.20;;;23.67;;
10260;SDS011;5175;42.606;23.388;2022-11-04T08:15:46;31.43;;;22.20;;
10260;SDS011;5175;42.606;23.388;2022-11-04T08:18:14;27.70;;;21.90;;
10260;SDS011;5175;42.606;23.388;2022-11-04T08:20:45;26.80;;;22.07;;
10260;SDS011;5175;42.606;23.388;2022-11-04T08:23:14;29.90;;;21.87;;
10260;SDS011;5175;42.606;23.388;2022-11-04T08:25:41;27.97;;;22.87;;
10260;SDS011;5175;42.606;23.388;2022-11-04T08:28:08;28.37;;;22.53;;
10260;SDS011;5175;42.606;23.388;2022-11-04T08:30:41;27.17;;;21.40;;
10260;SDS011;5175;42.606;23.388;2022-11-04T08:33:18;25.50;;;21.03;;
10260;SDS011;5175;42.606;23.388;2022-11-04T08:35:45;28.47;;;21.50;;
10260;SDS011;5175;42.606;23.388;2022-11-04T08:38:11;29.53;;;21.93;;
10260;SDS011;5175;42.606;23.388;2022-11-04T08:40:38;25.73;;;21.17;;
10260;SDS011;5175;42.606;23.388;2022-11-04T08:43:06;28.50;;;21.50;;
10260;SDS011;5175;42.606;23.388;2022-11-04T08:45:36;32.17;;;21.83;;
10260;SDS011;5175;42.606;23.388;2022-11-04T08:48:04;24.87;;;21.07;;
10260;SDS011;5175;42.606;23.388;2022-11-04T08:50:32;25.80;;;20.77;;
10260;SDS011;5175;42.606;23.388;2022-11-04T08:52:59;28.17;;;21.20;;
10260;SDS011;5175;42.606;23.388;2022-11-04T08:55:27;27.63;;;21.33;;
10260;SDS011;5175;42.606;23.388;2022-11-04T08:57:54;29.10;;;21.90;;
10260;SDS011;5175;42.606;23.388;2022-11-04T09:00:21;29.07;;;20.87;;
10260;SDS011;5175;42.606;23.388;2022-11-04T09:02:48;24.33;;;20.57;;
10260;SDS011;5175;42.606;23.388;2022-11-04T09:05:15;23.90;;;19.07;;
10260;SDS011;5175;42.606;23.388;2022-11-04T09:07:43;25.30;;;19.53;;
10260;SDS011;5175;42.606;23.388;2022-11-04T09:10:11;27.13;;;20.07;;
10260;SDS011;5175;42.606;23.388;2022-11-04T09:12:39;23.33;;;18.47;;
10260;SDS011;5175;42.606;23.388;2022-11-04T09:15:07;23.93;;;19.63;;
10260;SDS011;5175;42.606;23.388;2022-11-04T09:17:34;24.97;;;18.80;;
10260;SDS011;5175;42.606;23.388;2022-11-04T09:20:02;23.60;;;19.03;;
10260;SDS011;5175;42.606;23.388;2022-11-04T09:22:29;23.05;;;17.77;;
10260;SDS011;5175;42.606;23.388;2022-11-04T09:24:57;21.47;;;17.87;;
10260;SDS011;5175;42.606;23.388;2022-11-04T09:27:24;24.53;;;17.93;;
10260;SDS011;5175;42.606;23.388;2022-11-04T09:29:51;23.77;;;19.70;;
10260;SDS011;5175;42.606;23.388;2022-11-04T09:32:18;25.60;;;18.80;;
10260;SDS011;5175;42.606;23.388;2022-11-04T09:34:44;25.23;;;18.92;;
10260;SDS011;5175;42.606;23.388;2022-11-04T09:37:11;22.57;;;18.50;;
10260;SDS011;5175;42.606;23.388;2022-11-04T09:39:39;23.48;;;19.40;;
10260;SDS011;5175;42.606;23.388;2022-11-04T09:42:12;24.90;;;19.38;;
10260;SDS011;5175;42.606;23.388;2022-11-04T09:44:52;25.88;;;19.63;;
10260;SDS011;5175;42.606;23.388;2022-11-04T09:47:23;26.58;;;18.88;;
10260;SDS011;5175;42.606;23.388;2022-11-04T09:49:52;23.40;;;18.77;;
10260;SDS011;5175;42.606;23.388;2022-11-04T09:52:22;24.35;;;20.33;;
10260;SDS011;5175;42.606;23.388;2022-11-04T09:54:57;23.97;;;18.97;;
10260;SDS011;5175;42.606;23.388;2022-11-04T09:57:31;23.83;;;19.90;;
10260;SDS011;5175;42.606;23.388;2022-11-04T09:59:58;26.35;;;19.13;;
10260;SDS011;5175;42.606;23.388;2022-11-04T10:02:28;26.90;;;19.38;;
10260;SDS011;5175;42.606;23.388;2022-11-04T10:05:13;25.00;;;20.27;;
10260;SDS011;5175;42.606;23.388;2022-11-04T10:07:52;21.25;;;18.45;;
10260;SDS011;5175;42.606;23.388;2022-11-04T10:10:32;38.00;;;19.83;;
10260;SDS011;5175;42.606;23.388;2022-11-04T10:13:20;25.27;;;19.23;;
10260;SDS011;5175;42.606;23.388;2022-11-04T10:16:00;26.13;;;17.83;;
10260;SDS011;5175;42.606;23.388;2022-11-04T10:18:39;24.45;;;18.77;;
10260;SDS011;5175;42.606;23.388;2022-11-04T10:21:17;22.10;;;17.60;;
10260;SDS011;5175;42.606;23.388;2022-11-04T10:23:58;20.15;;;17.17;;
10260;SDS011;5175;42.606;23.388;2022-11-04T10:26:36;26.15;;;17.30;;
10260;SDS011;5175;42.606;23.388;2022-11-04T10:29:12;24.02;;;16.52;;
10260;SDS011;5175;42.606;23.388;2022-11-04T10:31:42;20.17;;;16.77;;
10260;SDS011;5175;42.606;23.388;2022-11-04T10:34:13;22.95;;;17.67;;
10260;SDS011;5175;42.606;23.388;2022-11-04T10:36:47;24.00;;;17.70;;
10260;SDS011;5175;42.606;23.388;2022-11-04T10:39:15;24.00;;;17.33;;
10260;SDS011;5175;42.606;23.388;2022-11-04T10:41:51;21.02;;;17.40;;
10260;SDS011;5175;42.606;23.388;2022-11-04T10:44:21;25.10;;;17.00;;
10260;SDS011;5175;42.606;23.388;2022-11-04T10:46:52;22.77;;;17.48;;
10260;SDS011;5175;42.606;23.388;2022-11-04T10:49:37;22.42;;;16.55;;
10260;SDS011;5175;42.606;23.388;2022-11-04T10:52:20;25.27;;;17.30;;
10260;SDS011;5175;42.606;23.388;2022-11-04T10:54:47;20.08;;;16.23;;
10260;SDS011;5175;42.606;23.388;2022-11-04T10:57:16;23.33;;;15.75;;
10260;SDS011;5175;42.606;23.388;2022-11-04T10:59:51;19.60;;;15.65;;
10260;SDS011;5175;42.606;23.388;2022-11-04T11:05:13;21.33;;;17.52;;
10260;SDS011;5175;42.606;23.388;2022-11-04T11:07:48;21.77;;;16.25;;
10260;SDS011;5175;42.606;23.388;2022-11-04T11:10:17;22.40;;;15.85;;
10260;SDS011;5175;42.606;23.388;2022-11-04T11:12:50;22.95;;;17.40;;
10260;SDS011;5175;42.606;23.388;2022-11-04T11:15:26;24.17;;;16.23;;
10260;SDS011;5175;42.606;23.388;2022-11-04T11:17:58;21.23;;;16.13;;
10260;SDS011;5175;42.606;23.388;2022-11-04T11:20:28;21.05;;;15.93;;
10260;SDS011;5175;42.606;23.388;2022-11-04T11:22:57;19.33;;;14.95;;
10260;SDS011;5175;42.606;23.388;2022-11-04T11:25:26;19.73;;;15.02;;
10260;SDS011;5175;42.606;23.388;2022-11-04T11:27:55;19.25;;;14.73;;
10260;SDS011;5175;42.606;23.388;2022-11-04T11:30:26;20.20;;;15.38;;
10260;SDS011;5175;42.606;23.388;2022-11-04T11:32:59;19.48;;;15.13;;
10260;SDS011;5175;42.606;23.388;2022-11-04T11:35:30;24.98;;;15.77;;
10260;SDS011;5175;42.606;23.388;2022-11-04T11:38:05;21.77;;;15.18;;
10260;SDS011;5175;42.606;23.388;2022-11-04T11:40:43;20.83;;;15.90;;
10260;SDS011;5175;42.606;23.388;2022-11-04T11:43:17;21.45;;;14.65;;
10260;SDS011;5175;42.606;23.388;2022-11-04T11:45:50;22.73;;;14.73;;
10260;SDS011;5175;42.606;23.388;2022-11-04T11:48:29;23.75;;;15.23;;
10260;SDS011;5175;42.606;23.388;2022-11-04T11:50:57;23.10;;;14.40;;
10260;SDS011;5175;42.606;23.388;2022-11-04T11:53:25;17.48;;;14.65;;
10260;SDS011;5175;42.606;23.388;2022-11-04T11:55:56;17.85;;;13.55;;
10260;SDS011;5175;42.606;23.388;2022-11-04T11:58:31;22.73;;;14.40;;
10260;SDS011;5175;42.606;23.388;2022-11-04T12:01:07;22.45;;;14.25;;
10260;SDS011;5175;42.606;23.388;2022-11-04T12:03:41;18.45;;;13.77;;
10260;SDS011;5175;42.606;23.388;2022-11-04T12:06:14;18.42;;;14.05;;
10260;SDS011;5175;42.606;23.388;2022-11-04T12:08:58;17.80;;;12.73;;
10260;SDS011;5175;42.606;23.388;2022-11-04T12:11:51;19.08;;;13.52;;
10260;SDS011;5175;42.606;23.388;2022-11-04T12:14:30;17.08;;;13.90;;
10260;SDS011;5175;42.606;23.388;2022-11-04T12:17:17;36.53;;;14.05;;
10260;SDS011;5175;42.606;23.388;2022-11-04T12:20:02;18.50;;;12.98;;
10260;SDS011;5175;42.606;23.388;2022-11-04T12:22:46;17.13;;;12.27;;
10260;SDS011;5175;42.606;23.388;2022-11-04T12:25:21;20.88;;;13.13;;
10260;SDS011;5175;42.606;23.388;2022-11-04T12:27:56;18.45;;;12.98;;
10260;SDS011;5175;42.606;23.388;2022-11-04T12:30:30;17.75;;;12.73;;
10260;SDS011;5175;42.606;23.388;2022-11-04T12:33:09;19.10;;;12.65;;
10260;SDS011;5175;42.606;23.388;2022-11-04T12:35:53;21.63;;;12.60;;
10260;SDS011;5175;42.606;23.388;2022-11-04T12:38:32;13.73;;;11.75;;
10260;SDS011;5175;42.606;23.388;2022-11-04T12:41:13;19.40;;;12.18;;
10260;SDS011;5175;42.606;23.388;2022-11-04T12:43:47;17.98;;;12.45;;
10260;SDS011;5175;42.606;23.388;2022-11-04T12:46:24;19.70;;;12.30;;
10260;SDS011;5175;42.606;23.388;2022-11-04T12:49:03;18.67;;;11.63;;
10260;SDS011;5175;42.606;23.388;2022-11-04T12:51:49;20.13;;;11.90;;
10260;SDS011;5175;42.606;23.388;2022-11-04T12:57:19;16.73;;;11.23;;
10260;SDS011;5175;42.606;23.388;2022-11-04T13:00:01;14.82;;;11.48;;
10260;SDS011;5175;42.606;23.388;2022-11-04T13:02:37;15.35;;;11.35;;
10260;SDS011;5175;42.606;23.388;2022-11-04T13:05:22;20.83;;;12.27;;
10260;SDS011;5175;42.606;23.388;2022-11-04T13:07:56;17.45;;;11.38;;
10260;SDS011;5175;42.606;23.388;2022-11-04T13:10:33;21.88;;;11.75;;
10260;SDS011;5175;42.606;23.388;2022-11-04T13:13:06;14.75;;;12.05;;
10260;SDS011;5175;42.606;23.388;2022-11-04T13:15:38;15.77;;;11.75;;
10260;SDS011;5175;42.606;23.388;2022-11-04T13:18:11;19.13;;;11.43;;
10260;SDS011;5175;42.606;23.388;2022-11-04T13:20:46;17.73;;;11.90;;
10260;SDS011;5175;42.606;23.388;2022-11-04T13:23:21;17.27;;;12.23;;
10260;SDS011;5175;42.606;23.388;2022-11-04T13:25:53;19.48;;;11.85;;
10260;SDS011;5175;42.606;23.388;2022-11-04T13:28:23;20.88;;;12.35;;
10260;SDS011;5175;42.606;23.388;2022-11-04T13:30:53;22.02;;;12.98;;
10260;SDS011;5175;42.606;23.388;2022-11-04T13:33:31;53.13;;;20.60;;
10260;SDS011;5175;42.606;23.388;2022-11-04T13:36:09;48.63;;;17.60;;
10260;SDS011;5175;42.606;23.388;2022-11-04T13:38:45;40.10;;;19.13;;
10260;SDS011;5175;42.606;23.388;2022-11-04T13:44:19;9.02;;;4.30;;
10260;SDS011;5175;42.606;23.388;2022-11-04T13:46:51;8.55;;;3.97;;
10260;SDS011;5175;42.606;23.388;2022-11-04T13:49:22;6.90;;;4.20;;
10260;SDS011;5175;42.606;23.388;2022-11-04T13:52:01;6.63;;;4.15;;
10260;SDS011;5175;42.606;23.388;2022-11-04T13:54:32;8.75;;;3.92;;
10260;SDS011;5175;42.606;23.388;2022-11-04T13:57:10;8.05;;;4.20;;
10260;SDS011;5175;42.606;23.388;2022-11-04T13:59:39;5.68;;;3.78;;
10260;SDS011;5175;42.606;23.388;2022-11-04T14:08:21;18.90;;;8.48;;
10260;SDS011;5175;42.606;23.388;2022-11-04T14:10:58;27.70;;;9.95;;
10260;SDS011;5175;42.606;23.388;2022-11-04T14:13:41;28.88;;;9.93;;
10260;SDS011;5175;42.606;23.388;2022-11-04T14:16:37;21.73;;;7.55;;
10260;SDS011;5175;42.606;23.388;2022-11-04T14:22:26;12.80;;;4.28;;
10260;SDS011;5175;42.606;23.388;2022-11-04T14:24:58;5.90;;;3.03;;
10260;SDS011;5175;42.606;23.388;2022-11-04T14:27:30;5.68;;;3.08;;
10260;SDS011;5175;42.606;23.388;2022-11-04T14:30:04;7.95;;;3.63;;
10260;SDS011;5175;42.606;23.388;2022-11-04T14:32:33;7.88;;;3.38;;
10260;SDS011;5175;42.606;23.388;2022-11-04T14:35:05;7.65;;;3.90;;
10260;SDS011;5175;42.606;23.388;2022-11-04T14:37:34;7.40;;;3.50;;
10260;SDS011;5175;42.606;23.388;2022-11-04T14:40:05;6.85;;;4.22;;
10260;SDS011;5175;42.606;23.388;2022-11-04T14:42:49;6.32;;;4.07;;
10260;SDS011;5175;42.606;23.388;2022-11-04T14:45:20;8.75;;;4.55;;
10260;SDS011;5175;42.606;23.388;2022-11-04T14:47:50;8.32;;;4.10;;
10260;SDS011;5175;42.606;23.388;2022-11-04T14:50:22;9.48;;;4.22;;
10260;SDS011;5175;42.606;23.388;2022-11-04T14:52:53;14.52;;;6.47;;
10260;SDS011;5175;42.606;23.388;2022-11-04T14:55:24;9.77;;;4.72;;
10260;SDS011;5175;42.606;23.388;2022-11-04T14:57:55;11.05;;;4.10;;
10260;SDS011;5175;42.606;23.388;2022-11-04T15:00:32;7.28;;;4.22;;
10260;SDS011;5175;42.606;23.388;2022-11-04T15:03:22;8.40;;;4.88;;
10260;SDS011;5175;42.606;23.388;2022-11-04T15:05:51;12.15;;;8.13;;
10260;SDS011;5175;42.606;23.388;2022-11-04T15:08:29;19.55;;;10.18;;
10260;SDS011;5175;42.606;23.388;2022-11-04T15:11:04;25.15;;;9.80;;
10260;SDS011;5175;42.606;23.388;2022-11-04T15:13:34;21.80;;;10.60;;